createdAt,value
2023-03-29T00:17:55.552Z,3.8
2023-03-29T00:58:03.452Z,3.6
2023-03-29T01:38:12.246Z,3.8
2023-03-29T02:08:19.015Z,3.9
2023-03-29T02:18:21.297Z,3.8
2023-03-29T02:28:23.630Z,4.1
2023-03-29T02:48:27.824Z,4.1
2023-03-29T02:58:30.324Z,4.3
2023-03-29T03:08:32.178Z,4.4
2023-03-29T03:18:34.258Z,4.5
2023-03-29T03:28:36.358Z,4.5
2023-03-29T03:38:38.740Z,4.6
2023-03-29T03:48:41.135Z,4.7
2023-03-29T03:58:43.445Z,4.9
2023-03-29T04:08:45.779Z,5.1
2023-03-29T04:18:48.334Z,5.4
2023-03-29T04:28:50.583Z,5.5
2023-03-29T04:38:52.625Z,5.4
2023-03-29T04:48:54.740Z,5.2
2023-03-29T04:58:56.957Z,5.2
2023-03-29T05:08:58.892Z,5.3
2023-03-29T05:19:00.688Z,5.3
2023-03-29T05:29:03.019Z,5.4
2023-03-29T05:39:04.706Z,5.5
2023-03-29T05:59:08.849Z,5.7
2023-03-29T06:09:11.115Z,5.8
2023-03-29T06:19:13.300Z,5.9
2023-03-29T06:29:15.096Z,6
2023-03-29T06:39:17.150Z,6.3
2023-03-29T06:49:18.850Z,6.4
2023-03-29T06:59:20.597Z,6.7
2023-03-29T07:09:22.903Z,6.9
2023-03-29T07:19:25.185Z,7.2
2023-03-29T07:29:26.859Z,7.3
2023-03-29T07:39:28.628Z,7.5
2023-03-29T07:49:30.357Z,7.7
2023-03-29T07:59:32.261Z,8
2023-03-29T08:09:34.370Z,8.3
2023-03-29T08:19:36.621Z,8.4
2023-03-29T08:29:39.168Z,8.5
2023-03-29T08:39:41.116Z,8.6
2023-03-29T08:59:45.543Z,8.9
2023-03-29T09:09:47.510Z,9.1
2023-03-29T09:19:50.071Z,9.2
2023-03-29T09:29:52.672Z,9.1
2023-03-29T09:39:54.404Z,8.7
2023-03-29T09:49:56.373Z,9
2023-03-29T09:59:58.447Z,9.1
2023-03-29T10:10:00.689Z,8.7
2023-03-29T10:20:04.125Z,8.9
2023-03-29T10:30:05.326Z,9.2
2023-03-29T10:50:09.316Z,10.1
2023-03-29T11:00:11.461Z,10.5
2023-03-29T11:10:13.428Z,10.3
2023-03-29T11:50:23.063Z,12.3
2023-03-29T12:00:24.805Z,12.8
2023-03-29T12:10:26.816Z,12.6
2023-03-29T12:20:29.430Z,14.1
2023-03-29T12:30:33.178Z,13.5
2023-03-29T12:40:34.101Z,13.5
2023-03-29T12:50:36.322Z,13.9
2023-03-29T13:00:38.218Z,14
2023-03-29T13:10:40.543Z,13.6
2023-03-29T13:20:42.736Z,13.5
2023-03-29T13:30:45.303Z,13
2023-03-29T13:50:48.902Z,13.9
2023-03-29T14:00:50.801Z,13.9
2023-03-29T14:10:53.121Z,13.8
2023-03-29T14:30:58.104Z,14.6
2023-03-29T14:41:00.107Z,14.2
2023-03-29T14:51:01.866Z,14.3
2023-03-29T15:01:04.279Z,14.5
2023-03-29T15:11:06.826Z,14.6
2023-03-29T15:21:08.969Z,14.4
2023-03-29T15:31:11.311Z,14.3
2023-03-29T15:41:12.887Z,14.3
2023-03-29T15:51:14.690Z,14.3
2023-03-29T16:01:16.387Z,14.3
2023-03-29T16:11:18.937Z,14.2
2023-03-29T16:21:20.849Z,14.1
2023-03-29T16:31:23.463Z,14.1
2023-03-29T16:41:25.373Z,14.2
2023-03-29T16:51:27.922Z,14.2
2023-03-29T17:01:30.403Z,14
2023-03-29T17:21:35.539Z,13.9
2023-03-29T17:31:37.776Z,13.8
2023-03-29T17:41:39.590Z,13.7
2023-03-29T17:51:41.589Z,13.7
2023-03-29T18:01:43.577Z,13.8
2023-03-29T18:11:45.957Z,13.7
2023-03-29T18:12:07.881Z,13.7
2023-03-29T18:21:55.476Z,13.7
2023-03-29T18:31:57.407Z,13.6
2023-03-29T18:41:59.463Z,13.4
2023-03-29T18:52:01.256Z,13.2
2023-03-29T19:02:03.405Z,13.2
2023-03-29T19:12:06.003Z,12.9
2023-03-29T19:22:08.652Z,12.9
2023-03-29T19:32:10.943Z,13.4
2023-03-29T19:42:12.842Z,13.4
2023-03-29T19:52:15.402Z,13.2
2023-03-29T20:12:20.032Z,12.9
2023-03-29T20:22:22.204Z,12.7
2023-03-29T20:32:24.017Z,12.5
2023-03-29T20:42:26.279Z,12.5
2023-03-29T20:52:28.421Z,12.1
2023-03-29T21:02:30.486Z,11.9
2023-03-29T21:12:32.345Z,11.6
2023-03-29T21:22:34.917Z,11.4
2023-03-29T21:32:36.733Z,11.5
2023-03-29T21:42:39.137Z,11.4
2023-03-29T21:52:41.182Z,11.3
2023-03-29T22:02:43.315Z,11.1
2023-03-29T22:12:45.760Z,11.1
2023-03-29T22:22:47.757Z,11.1
2023-03-29T22:32:49.450Z,10.9
2023-03-29T22:42:51.726Z,11.2
2023-03-29T22:52:53.981Z,11.3
2023-03-29T23:02:56.103Z,11.6
2023-03-29T23:12:58.092Z,11.6
2023-03-29T23:22:59.789Z,11.4
2023-03-29T23:33:02.465Z,11.4
2023-03-29T23:43:04.835Z,11.1
2023-03-29T23:53:07.404Z,11
